Time;durP1;ratioP1;P1;durP2;ratioP2;P2;SDS_P1;SDS_P2;PMS_P1;PMS_P2;Temp;Humidity;BMP_temperature;BMP_pressure;BME280_temperature;BME280_humidity;BME280_pressure;Samples;Min_cycle;Max_cycle;Signal;HPM_P1;HPM_P2
2022/10/02 00:00:54;;;;;;;;;;;;;;;28.33;36.50;100052.66;5058602;28;1234;-35
2022/10/02 00:03:25;;;;;;;;;;;;;;;28.53;36.23;100036.44;5058965;28;1127;-35
2022/10/02 00:05:51;;;;;;;;;;;;;;;28.58;36.17;100042.03;5058213;28;1293;-37
2022/10/02 00:08:17;;;;;;;;;;;;;;;28.69;36.37;100029.75;5058112;28;1278;-35
2022/10/02 00:10:43;;;;;;;;;;;;;;;28.71;36.22;100018.72;5074272;28;1254;-36
2022/10/02 00:13:13;;;;;;;;;;;;;;;28.55;35.96;100033.50;5075712;28;1948;-35
2022/10/02 00:15:39;;;;;;;;;;;;;;;28.60;36.25;100039.13;5058399;28;1314;-35
2022/10/02 00:18:12;;;;;;;;;;;;;;;28.58;35.93;100036.63;5057556;28;1270;-36
2022/10/02 00:20:41;;;;;;;;;;;;;;;28.48;35.85;100020.84;5068192;28;1087;-36
2022/10/02 00:23:08;;;;;;;;;;;;;;;28.30;36.50;100009.78;5057788;28;1783;-36
2022/10/02 00:25:39;;;;;;;;;;;;;;;28.44;36.52;100008.78;5058568;28;1099;-36
2022/10/02 00:28:07;;;;;;;;;;;;;;;28.31;36.95;100016.88;5058666;28;1163;-37
2022/10/02 00:30:35;;;;;;;;;;;;;;;28.34;36.72;100025.41;5056827;28;1057;-36
2022/10/02 00:33:01;;;;;;;;;;;;;;;28.36;36.78;100017.91;5039545;28;1905;-35
2022/10/02 00:35:26;;;;;;;;;;;;;;;28.36;36.11;100015.22;5076249;28;1206;-36
2022/10/02 00:37:57;;;;;;;;;;;;;;;28.39;36.77;100005.88;5065885;28;1099;-36
2022/10/02 00:40:36;;;;;;;;;;;;;;;28.33;35.92;100020.22;5073456;28;1226;-35
2022/10/02 00:43:04;;;;;;;;;;;;;;;28.35;36.14;100040.63;5058646;28;1171;-37
2022/10/02 00:45:32;;;;;;;;;;;;;;;28.35;36.03;100032.50;5071791;28;1185;-36
2022/10/02 00:48:03;;;;;;;;;;;;;;;28.30;36.17;100043.09;5056056;28;1178;-36
2022/10/02 00:50:29;;;;;;;;;;;;;;;28.34;36.60;100054.34;5069582;28;1108;-36
2022/10/02 00:52:54;;;;;;;;;;;;;;;28.26;36.31;100066.16;5055636;28;1902;-36
2022/10/02 00:55:38;;;;;;;;;;;;;;;28.32;36.50;100075.31;5070097;28;2499;-39
2022/10/02 00:58:07;;;;;;;;;;;;;;;28.25;36.66;100080.72;5064160;28;1202;-37
2022/10/02 01:00:32;;;;;;;;;;;;;;;28.31;36.62;100074.47;5058236;28;1186;-36
2022/10/02 01:02:57;;;;;;;;;;;;;;;28.33;36.38;100068.91;5076641;28;1154;-36
2022/10/02 01:05:24;;;;;;;;;;;;;;;28.38;36.78;100069.09;5076083;28;1154;-36
2022/10/02 01:07:49;;;;;;;;;;;;;;;28.30;36.47;100075.53;5063662;28;1123;-36
2022/10/02 01:10:15;;;;;;;;;;;;;;;28.24;36.81;100088.00;5072369;28;1122;-35
2022/10/02 01:12:40;;;;;;;;;;;;;;;28.31;36.17;100098.00;5075726;28;1225;-35
2022/10/02 01:15:12;;;;;;;;;;;;;;;28.50;35.68;100095.53;5047337;28;1964;-36
2022/10/02 01:17:37;;;;;;;;;;;;;;;28.51;36.38;100091.81;5058870;28;1324;-36
2022/10/02 01:20:04;;;;;;;;;;;;;;;28.36;36.13;100101.78;5057267;28;1143;-35
2022/10/02 01:22:51;;;;;;;;;;;;;;;28.31;36.17;100106.13;5058191;28;1162;-37
2022/10/02 01:25:16;;;;;;;;;;;;;;;28.39;35.65;100102.41;5061121;28;2621;-37
2022/10/02 01:27:42;;;;;;;;;;;;;;;28.43;36.16;100101.78;5080172;28;1107;-36
2022/10/02 01:30:08;;;;;;;;;;;;;;;28.43;35.64;100098.22;5061643;28;1147;-37
2022/10/02 01:32:34;;;;;;;;;;;;;;;28.42;35.80;100083.06;5079686;28;1095;-36
2022/10/02 01:34:59;;;;;;;;;;;;;;;28.27;36.23;100094.88;5073388;28;1910;-33
2022/10/02 01:37:26;;;;;;;;;;;;;;;28.33;35.69;100093.25;5061840;28;1111;-35
2022/10/02 01:39:51;;;;;;;;;;;;;;;28.24;36.04;100098.81;5061893;28;1099;-35
2022/10/02 01:42:17;;;;;;;;;;;;;;;28.27;36.15;100108.41;5061327;28;1111;-35
2022/10/02 01:44:42;;;;;;;;;;;;;;;28.40;36.08;100115.72;5061314;28;1126;-34
2022/10/02 01:47:08;;;;;;;;;;;;;;;28.34;35.70;100121.97;5060760;28;949;-35
2022/10/02 01:49:46;;;;;;;;;;;;;;;28.30;35.95;100121.50;5061595;28;1040;-35
2022/10/02 01:52:30;;;;;;;;;;;;;;;28.28;36.12;100125.47;5061344;28;1111;-35
2022/10/02 01:54:55;;;;;;;;;;;;;;;28.24;36.04;100111.53;5065341;28;1961;-34
2022/10/02 01:57:24;;;;;;;;;;;;;;;28.25;36.54;100099.66;5070744;28;1190;-35
2022/10/02 02:00:04;;;;;;;;;;;;;;;28.32;36.50;100080.72;5077659;28;1107;-38
2022/10/02 02:02:36;;;;;;;;;;;;;;;28.44;36.19;100084.53;5052958;28;1120;-36
2022/10/02 02:05:01;;;;;;;;;;;;;;;28.44;35.91;100098.06;5058902;28;1233;-35
2022/10/02 02:07:27;;;;;;;;;;;;;;;28.43;35.89;100069.31;5066462;28;1190;-35
2022/10/02 02:10:03;;;;;;;;;;;;;;;28.34;36.51;100067.88;5071394;28;1215;-35
2022/10/02 02:12:29;;;;;;;;;;;;;;;28.45;36.60;100058.28;5061118;28;1166;-36
2022/10/02 02:15:17;;;;;;;;;;;;;;;28.35;36.59;100051.44;5078874;28;1910;-36
2022/10/02 02:17:54;;;;;;;;;;;;;;;28.40;36.27;100033.72;5067844;28;1833;-36
2022/10/02 02:20:27;;;;;;;;;;;;;;;28.35;36.21;100007.31;5078472;28;1208;-36
2022/10/02 02:22:52;;;;;;;;;;;;;;;28.36;36.09;99987.34;5078356;28;1182;-36
2022/10/02 02:25:21;;;;;;;;;;;;;;;28.44;36.46;99979.03;5078603;28;2290;-37
2022/10/02 02:27:52;;;;;;;;;;;;;;;28.36;36.08;99966.53;5060869;28;1123;-36
2022/10/02 02:30:17;;;;;;;;;;;;;;;28.49;36.09;99956.75;5060449;28;1150;-34
2022/10/02 02:32:47;;;;;;;;;;;;;;;28.39;36.36;99950.94;5078474;28;1103;-35
2022/10/02 02:35:16;;;;;;;;;;;;;;;28.37;35.88;99883.53;5058908;28;1972;-35
2022/10/02 02:37:41;;;;;;;;;;;;;;;28.42;35.89;99891.84;5060253;28;1478;-36
2022/10/02 02:40:08;;;;;;;;;;;;;;;28.38;36.61;99920.34;5040770;28;1151;-35
2022/10/02 02:42:36;;;;;;;;;;;;;;;28.40;36.04;99929.09;5052979;28;1077;-35
2022/10/02 02:45:05;;;;;;;;;;;;;;;28.30;36.02;99898.91;5060197;28;1385;-35
2022/10/02 02:47:49;;;;;;;;;;;;;;;28.25;36.04;99888.72;5059786;28;906;-36
2022/10/02 02:50:17;;;;;;;;;;;;;;;28.25;35.98;99923.88;5077986;28;1469;-35
2022/10/02 02:52:48;;;;;;;;;;;;;;;28.38;35.84;99955.50;5078424;28;1197;-34
2022/10/02 02:55:14;;;;;;;;;;;;;;;28.47;36.10;99984.00;5059028;28;2441;-36
2022/10/02 02:57:42;;;;;;;;;;;;;;;28.24;36.31;100014.16;5069354;28;1076;-36
2022/10/02 03:00:07;;;;;;;;;;;;;;;28.32;36.07;100018.53;5078063;28;917;-34
2022/10/02 03:02:32;;;;;;;;;;;;;;;28.41;36.17;100020.00;5077940;28;1079;-37
2022/10/02 03:04:58;;;;;;;;;;;;;;;28.39;36.12;100024.81;5060154;28;1138;-35
2022/10/02 03:07:23;;;;;;;;;;;;;;;28.40;36.06;100025.63;5077836;28;1122;-34
2022/10/02 03:09:52;;;;;;;;;;;;;;;28.51;36.23;100029.56;5059794;28;1115;-33
2022/10/02 03:12:31;;;;;;;;;;;;;;;28.36;36.56;100036.84;5059805;28;949;-36
2022/10/02 03:15:01;;;;;;;;;;;;;;;28.33;36.47;100029.16;5060166;28;1901;-36
2022/10/02 03:17:38;;;;;;;;;;;;;;;28.14;36.57;100021.88;5077309;28;1166;-36
2022/10/02 03:20:16;;;;;;;;;;;;;;;28.24;35.87;100011.47;5058843;28;1233;-36
2022/10/02 03:22:46;;;;;;;;;;;;;;;28.30;36.45;100004.38;5061800;28;1154;-37
2022/10/02 03:25:32;;;;;;;;;;;;;;;28.19;36.69;100004.00;5059889;28;1951;-37
2022/10/02 03:27:58;;;;;;;;;;;;;;;28.27;36.24;100013.75;5063046;28;1412;-38
2022/10/02 03:30:23;;;;;;;;;;;;;;;28.27;36.72;100011.03;5077297;28;1111;-37
2022/10/02 03:32:52;;;;;;;;;;;;;;;28.32;36.28;100026.63;5059806;28;1139;-36
2022/10/02 03:35:17;;;;;;;;;;;;;;;28.37;36.14;100024.19;5076849;28;1879;-37
2022/10/02 03:37:44;;;;;;;;;;;;;;;28.18;36.55;100010.41;5077607;28;1174;-35
2022/10/02 03:40:09;;;;;;;;;;;;;;;27.47;39.69;100004.47;5063188;28;1179;-33
2022/10/02 03:42:35;;;;;;;;;;;;;;;27.17;40.57;100021.84;5077286;28;1095;-33
2022/10/02 03:45:00;;;;;;;;;;;;;;;27.16;40.63;100038.22;5077169;28;1154;-33
2022/10/02 03:47:25;;;;;;;;;;;;;;;27.10;41.20;100045.25;5075955;28;888;-33
2022/10/02 03:49:51;;;;;;;;;;;;;;;26.99;41.34;100074.44;5076871;28;1405;-34
2022/10/02 03:52:17;;;;;;;;;;;;;;;26.91;41.79;100071.91;5072813;28;1162;-36
2022/10/02 03:54:42;;;;;;;;;;;;;;;26.88;41.03;100069.59;5056587;28;2563;-36
2022/10/02 03:57:11;;;;;;;;;;;;;;;27.28;38.81;100071.72;5057112;28;1199;-36
2022/10/02 03:59:40;;;;;;;;;;;;;;;27.39;38.92;100087.34;5047829;28;1231;-38
2022/10/02 04:02:06;;;;;;;;;;;;;;;27.46;38.92;100100.06;5076142;28;1480;-39
2022/10/02 04:04:38;;;;;;;;;;;;;;;27.70;39.11;100106.81;5059194;28;1155;-36
2022/10/02 04:07:03;;;;;;;;;;;;;;;27.71;38.47;100115.78;5076736;28;996;-36
2022/10/02 04:09:35;;;;;;;;;;;;;;;27.82;37.48;100127.84;5058084;28;1163;-36
2022/10/02 04:12:02;;;;;;;;;;;;;;;27.77;37.17;100144.69;5064654;28;1147;-36
2022/10/02 04:14:35;;;;;;;;;;;;;;;27.84;37.62;100144.72;5044196;28;1973;-34
2022/10/02 04:17:05;;;;;;;;;;;;;;;27.77;37.85;100136.59;5058693;28;1099;-34
2022/10/02 04:19:36;;;;;;;;;;;;;;;27.77;37.98;100133.03;5059336;28;1202;-34
2022/10/02 04:22:02;;;;;;;;;;;;;;;27.72;37.89;100120.13;5058641;28;1361;-36
2022/10/02 04:24:30;;;;;;;;;;;;;;;27.78;37.38;100118.50;5046871;28;1912;-35
2022/10/02 04:27:01;;;;;;;;;;;;;;;27.84;37.56;100118.50;5076168;28;1179;-36
2022/10/02 04:29:27;;;;;;;;;;;;;;;27.82;37.59;100122.44;5058478;28;1111;-35
2022/10/02 04:31:53;;;;;;;;;;;;;;;27.87;37.45;100134.34;5050096;28;1099;-35
2022/10/02 04:34:18;;;;;;;;;;;;;;;27.84;37.63;100133.91;5052635;28;1975;-36
2022/10/02 04:36:59;;;;;;;;;;;;;;;27.89;37.48;100134.13;5066124;28;988;-35
2022/10/02 04:39:25;;;;;;;;;;;;;;;27.80;38.08;100122.66;5074412;28;1133;-36
2022/10/02 04:42:00;;;;;;;;;;;;;;;27.74;35.29;100123.47;5074846;28;1255;-35
2022/10/02 04:45:04;;;;;;;;;;;;;;;27.61;33.20;100118.84;5046472;28;1501;-38
2022/10/02 04:47:47;;;;;;;;;;;;;;;26.88;31.04;100121.72;4980811;28;1255;-35
2022/10/02 04:50:25;;;;;;;;;;;;;;;27.24;31.08;100119.88;4992262;28;998;-36
2022/10/02 04:52:54;;;;;;;;;;;;;;;27.41;32.41;100124.94;5042850;28;1084;-36
2022/10/02 04:55:23;;;;;;;;;;;;;;;27.49;32.13;100129.38;5043946;28;2279;-35
2022/10/02 04:58:07;;;;;;;;;;;;;;;27.60;31.87;100131.50;5057668;28;1127;-35
2022/10/02 05:00:40;;;;;;;;;;;;;;;27.62;32.09;100128.59;5063464;28;1202;-35
2022/10/02 05:03:12;;;;;;;;;;;;;;;27.69;31.72;100124.09;5058440;28;1110;-34
2022/10/02 05:05:47;;;;;;;;;;;;;;;27.77;31.62;100131.19;5058010;28;1122;-34
2022/10/02 05:08:15;;;;;;;;;;;;;;;27.94;31.48;100120.00;5075641;28;1249;-35
2022/10/02 05:11:10;;;;;;;;;;;;;;;28.03;31.42;100128.75;5075839;28;1213;-35
2022/10/02 05:13:38;;;;;;;;;;;;;;;28.22;31.47;100138.78;4988047;28;1968;-36
2022/10/02 05:16:22;;;;;;;;;;;;;;;28.22;31.52;100127.97;5067685;28;1298;-35
2022/10/02 05:18:56;;;;;;;;;;;;;;;28.09;32.95;100123.34;5059665;28;1576;-39
2022/10/02 05:21:22;;;;;;;;;;;;;;;27.67;34.45;100122.56;5062513;28;1508;-38
2022/10/02 05:23:55;;;;;;;;;;;;;;;27.49;35.09;100121.28;5069202;28;1402;-39
2022/10/02 05:26:34;;;;;;;;;;;;;;;27.46;35.24;100135.19;5050013;28;1283;-41
2022/10/02 05:29:15;;;;;;;;;;;;;;;27.42;35.00;100140.16;5050184;28;1417;-41
2022/10/02 05:31:44;;;;;;;;;;;;;;;27.41;35.59;100141.16;5053637;28;1377;-40
2022/10/02 05:34:30;;;;;;;;;;;;;;;27.48;35.79;100127.69;5074048;28;1910;-39
2022/10/02 05:37:07;;;;;;;;;;;;;;;27.41;36.04;100116.03;5068482;28;1311;-40
2022/10/02 05:39:33;;;;;;;;;;;;;;;27.54;36.27;100137.72;5071392;28;1013;-41
2022/10/02 05:42:01;;;;;;;;;;;;;;;27.63;36.55;100136.50;5055743;28;1262;-40
2022/10/02 05:44:44;;;;;;;;;;;;;;;27.36;36.82;100124.75;5069764;28;1285;-40
2022/10/02 05:47:11;;;;;;;;;;;;;;;27.50;35.40;100123.78;5071535;28;1195;-41
2022/10/02 05:49:37;;;;;;;;;;;;;;;27.37;35.88;100111.03;5067195;28;1273;-41
2022/10/02 05:52:04;;;;;;;;;;;;;;;27.31;36.05;100119.91;5069545;28;1439;-39
2022/10/02 05:54:34;;;;;;;;;;;;;;;27.30;36.23;100117.41;5050943;28;1894;-40
2022/10/02 05:57:20;;;;;;;;;;;;;;;27.19;36.50;100124.22;5042347;28;1191;-40
2022/10/02 06:00:00;;;;;;;;;;;;;;;27.28;37.71;100128.44;5061285;28;1509;-41
2022/10/02 06:02:26;;;;;;;;;;;;;;;27.19;37.84;100114.28;5070516;28;1185;-44
2022/10/02 06:05:21;;;;;;;;;;;;;;;27.31;37.25;100114.53;5069653;28;1163;-40
2022/10/02 06:07:47;;;;;;;;;;;;;;;27.48;36.55;100109.63;5047565;28;1417;-39
2022/10/02 06:10:23;;;;;;;;;;;;;;;27.58;36.49;100108.41;5054248;28;1199;-41
2022/10/02 06:13:01;;;;;;;;;;;;;;;27.46;36.04;100100.88;5068568;28;1139;-39
2022/10/02 06:15:38;;;;;;;;;;;;;;;27.29;36.86;100105.81;5075286;28;1902;-41
2022/10/02 06:18:08;;;;;;;;;;;;;;;27.23;36.69;100109.28;5067443;28;1128;-40
2022/10/02 06:20:36;;;;;;;;;;;;;;;27.40;35.62;100109.78;5078355;28;1209;-39
2022/10/02 06:23:06;;;;;;;;;;;;;;;27.49;36.55;100108.56;5053494;28;1568;-42
2022/10/02 06:25:37;;;;;;;;;;;;;;;27.62;35.67;100104.28;5048562;28;930;-41
2022/10/02 06:28:24;;;;;;;;;;;;;;;27.65;36.02;100103.03;5065223;28;1064;-41
2022/10/02 06:30:51;;;;;;;;;;;;;;;27.55;35.13;100106.09;5056835;28;1251;-41
2022/10/02 06:33:21;;;;;;;;;;;;;;;27.63;35.43;100097.81;5071824;28;1906;-39
2022/10/02 06:35:52;;;;;;;;;;;;;;;27.58;34.91;100103.00;5071174;28;1215;-39
2022/10/02 06:38:36;;;;;;;;;;;;;;;27.72;34.96;100093.97;5068848;28;1282;-43
2022/10/02 06:41:21;;;;;;;;;;;;;;;27.65;35.27;100086.81;5068956;28;1242;-40
2022/10/02 06:43:58;;;;;;;;;;;;;;;27.74;35.23;100093.75;5071492;28;1411;-42
2022/10/02 06:46:42;;;;;;;;;;;;;;;27.76;35.32;100091.66;5071587;28;1336;-41
2022/10/02 06:49:08;;;;;;;;;;;;;;;27.73;35.18;100103.72;5071324;28;1230;-43
2022/10/02 06:51:42;;;;;;;;;;;;;;;27.79;35.07;100107.50;5072125;28;1404;-41
2022/10/02 06:54:10;;;;;;;;;;;;;;;27.80;36.67;100111.84;5053310;28;1897;-47
2022/10/02 06:56:43;;;;;;;;;;;;;;;28.03;35.46;100099.03;5077822;28;1007;-43
2022/10/02 06:59:11;;;;;;;;;;;;;;;28.27;33.93;100107.56;5060318;28;1104;-44
2022/10/02 07:01:57;;;;;;;;;;;;;;;27.57;36.70;100109.44;5066824;28;819;-40
2022/10/02 07:04:25;;;;;;;;;;;;;;;27.25;37.30;100109.91;5059332;28;1190;-40
2022/10/02 07:07:09;;;;;;;;;;;;;;;27.08;37.59;100102.16;5063294;28;1185;-43
2022/10/02 07:09:35;;;;;;;;;;;;;;;27.02;37.93;100109.19;5061110;28;1266;-35
2022/10/02 07:12:19;;;;;;;;;;;;;;;27.23;37.84;100112.81;5062970;28;1247;-43
2022/10/02 07:15:02;;;;;;;;;;;;;;;27.36;37.34;100106.66;5071032;28;1894;-44
2022/10/02 07:17:46;;;;;;;;;;;;;;;27.41;37.06;100108.75;5074103;28;1442;-43
2022/10/02 07:20:17;;;;;;;;;;;;;;;27.39;37.34;100098.16;5071150;28;1110;-44
2022/10/02 07:23:05;;;;;;;;;;;;;;;27.43;37.02;100082.38;5071754;28;1230;-42
2022/10/02 07:25:30;;;;;;;;;;;;;;;27.49;36.43;100097.78;5073650;28;1187;-43
2022/10/02 07:27:58;;;;;;;;;;;;;;;27.66;36.35;100091.19;5073068;28;1378;-43
2022/10/02 07:30:24;;;;;;;;;;;;;;;27.70;36.14;100101.44;5071067;28;1144;-43
2022/10/02 07:32:59;;;;;;;;;;;;;;;27.80;35.56;100108.31;5066957;28;1359;-43
2022/10/02 07:35:24;;;;;;;;;;;;;;;27.70;35.83;100104.13;5065071;28;1898;-43
2022/10/02 07:37:54;;;;;;;;;;;;;;;27.81;36.25;100104.59;5070614;28;1266;-44
2022/10/02 07:40:23;;;;;;;;;;;;;;;27.81;35.97;100091.06;5056120;28;1281;-44
2022/10/02 07:42:51;;;;;;;;;;;;;;;27.94;35.61;100111.88;5040104;28;1637;-44
2022/10/02 07:45:17;;;;;;;;;;;;;;;27.66;35.92;100104.72;5068794;28;1410;-44
2022/10/02 07:47:42;;;;;;;;;;;;;;;27.80;35.50;100109.16;5069233;28;1640;-42
2022/10/02 07:50:22;;;;;;;;;;;;;;;27.80;35.62;100119.13;5066834;28;1347;-43
2022/10/02 07:52:47;;;;;;;;;;;;;;;27.63;35.74;100127.53;5049880;28;1171;-44
2022/10/02 07:55:16;;;;;;;;;;;;;;;27.61;35.97;100135.84;5066217;28;1901;-42
2022/10/02 07:57:53;;;;;;;;;;;;;;;27.70;35.63;100133.00;5068257;28;1485;-42
2022/10/02 08:00:19;;;;;;;;;;;;;;;27.73;35.53;100146.94;5066961;28;1541;-39
2022/10/02 08:02:49;;;;;;;;;;;;;;;27.69;35.47;100139.47;5062638;28;1073;-41
2022/10/02 08:05:22;;;;;;;;;;;;;;;27.72;35.54;100137.19;5056907;28;1579;-41
2022/10/02 08:07:49;;;;;;;;;;;;;;;27.78;35.41;100126.63;5069779;28;1198;-41
2022/10/02 08:10:15;;;;;;;;;;;;;;;27.91;35.30;100129.31;5072501;28;1118;-41
2022/10/02 08:12:43;;;;;;;;;;;;;;;28.11;34.30;100117.75;5052386;28;1365;-44
2022/10/02 08:15:14;;;;;;;;;;;;;;;28.01;34.37;100115.41;5048431;28;1959;-42
2022/10/02 08:17:53;;;;;;;;;;;;;;;28.01;34.07;100118.13;5059016;28;1132;-41
2022/10/02 08:20:32;;;;;;;;;;;;;;;26.97;36.01;100106.22;5053858;28;1103;-41
2022/10/02 08:23:24;;;;;;;;;;;;;;;27.03;36.34;100112.69;5048395;28;1183;-41
2022/10/02 08:25:52;;;;;;;;;;;;;;;27.23;35.23;100111.97;5059237;28;1614;-43
2022/10/02 08:28:29;;;;;;;;;;;;;;;27.45;35.13;100090.28;5073622;28;1147;-44
2022/10/02 08:30:55;;;;;;;;;;;;;;;27.83;33.96;100097.06;5057343;28;1258;-44
2022/10/02 08:33:21;;;;;;;;;;;;;;;27.67;34.04;100109.06;5066815;28;1910;-43
2022/10/02 08:35:56;;;;;;;;;;;;;;;27.36;35.05;100109.34;5071558;28;1242;-44
2022/10/02 08:38:31;;;;;;;;;;;;;;;27.35;35.36;100104.16;5074241;28;1436;-44
2022/10/02 08:41:11;;;;;;;;;;;;;;;27.72;34.20;100110.16;5074762;28;966;-43
2022/10/02 08:43:49;;;;;;;;;;;;;;;27.93;33.05;100102.09;5074446;28;1158;-44
2022/10/02 08:46:15;;;;;;;;;;;;;;;27.97;33.16;100108.78;5051325;28;1164;-44
2022/10/02 08:48:53;;;;;;;;;;;;;;;28.22;32.36;100137.94;5075930;28;1230;-44
2022/10/02 08:51:21;;;;;;;;;;;;;;;28.12;32.11;100124.81;5073869;28;1135;-44
2022/10/02 08:54:05;;;;;;;;;;;;;;;27.90;32.42;100133.09;5076197;28;1957;-44
2022/10/02 08:56:45;;;;;;;;;;;;;;;27.92;32.40;100136.41;5076079;28;1122;-44
2022/10/02 08:59:30;;;;;;;;;;;;;;;28.13;31.91;100147.28;5050807;28;1085;-44
2022/10/02 09:02:14;;;;;;;;;;;;;;;28.05;32.56;100156.41;5057673;28;846;-44
2022/10/02 09:04:57;;;;;;;;;;;;;;;27.94;32.67;100153.28;5075431;28;1190;-43
2022/10/02 09:07:40;;;;;;;;;;;;;;;28.14;33.15;100154.34;5076206;28;1094;-43
2022/10/02 09:10:18;;;;;;;;;;;;;;;28.40;32.38;100148.19;5053917;28;1275;-38
2022/10/02 09:12:43;;;;;;;;;;;;;;;28.44;31.89;100129.69;5067319;28;1393;-45
2022/10/02 09:15:15;;;;;;;;;;;;;;;28.41;31.20;100140.91;5070749;28;1905;-44
2022/10/02 09:17:48;;;;;;;;;;;;;;;28.83;30.44;100128.00;5075296;28;1203;-44
2022/10/02 09:20:16;;;;;;;;;;;;;;;29.14;29.82;100127.56;5057551;28;1488;-44
2022/10/02 09:23:01;;;;;;;;;;;;;;;29.32;29.92;100143.97;5075914;28;1024;-44
2022/10/02 09:25:36;;;;;;;;;;;;;;;29.47;29.70;100140.16;5070035;28;1313;-44
2022/10/02 09:28:10;;;;;;;;;;;;;;;29.54;29.71;100127.44;5068315;28;1206;-44
2022/10/02 09:30:46;;;;;;;;;;;;;;;29.62;29.42;100109.28;5059517;28;1196;-43
2022/10/02 09:33:30;;;;;;;;;;;;;;;29.16;30.06;100136.31;5061204;28;1959;-43
2022/10/02 09:36:01;;;;;;;;;;;;;;;28.55;31.41;100139.03;5057784;28;1131;-43
2022/10/02 09:38:37;;;;;;;;;;;;;;;28.44;31.70;100133.22;5068104;28;1346;-43
2022/10/02 09:41:10;;;;;;;;;;;;;;;28.40;31.78;100152.75;5072906;28;1135;-43
2022/10/02 09:43:50;;;;;;;;;;;;;;;28.26;31.83;100122.13;5057460;28;1143;-43
2022/10/02 09:46:34;;;;;;;;;;;;;;;28.30;31.67;100142.31;5060863;28;1162;-43
2022/10/02 09:49:18;;;;;;;;;;;;;;;28.24;31.93;100135.88;5070114;28;1227;-43
2022/10/02 09:51:47;;;;;;;;;;;;;;;28.40;32.23;100137.38;5074449;28;1179;-44
2022/10/02 09:54:30;;;;;;;;;;;;;;;28.40;32.25;100147.34;5072365;28;1902;-43
2022/10/02 09:57:05;;;;;;;;;;;;;;;28.72;33.14;100147.56;5071315;28;1234;-43
2022/10/02 09:59:49;;;;;;;;;;;;;;;28.65;33.54;100138.63;5070595;28;1208;-43
2022/10/02 10:02:27;;;;;;;;;;;;;;;28.51;32.57;100118.84;5052906;28;1229;-43
2022/10/02 10:04:55;;;;;;;;;;;;;;;28.71;32.26;100145.91;5069601;28;1287;-43
2022/10/02 10:07:32;;;;;;;;;;;;;;;28.87;31.86;100138.41;5067150;28;1235;-43
2022/10/02 10:10:18;;;;;;;;;;;;;;;28.91;31.63;100158.59;5050975;28;1200;-43
2022/10/02 10:12:52;;;;;;;;;;;;;;;28.90;31.36;100141.53;5069422;28;1175;-43
2022/10/02 10:15:18;;;;;;;;;;;;;;;29.02;30.99;100151.75;5070537;28;1968;-43
2022/10/02 10:18:03;;;;;;;;;;;;;;;29.16;31.90;100153.38;5071453;28;1243;-44
2022/10/02 10:20:50;;;;;;;;;;;;;;;29.27;30.80;100134.81;5071070;28;1160;-43
2022/10/02 10:23:33;;;;;;;;;;;;;;;29.02;31.00;100158.00;5068090;28;1198;-43
2022/10/02 10:26:08;;;;;;;;;;;;;;;29.23;31.17;100163.38;5069899;28;1270;-42
2022/10/02 10:28:45;;;;;;;;;;;;;;;29.13;30.82;100131.31;5072097;28;1692;-43
2022/10/02 10:31:14;;;;;;;;;;;;;;;29.27;30.57;100141.06;5072733;28;1637;-43
2022/10/02 10:33:59;;;;;;;;;;;;;;;29.31;30.93;100163.16;5068779;28;1902;-43
2022/10/02 10:39:28;;;;;;;;;;;;;;;29.36;30.91;100174.19;5071151;28;1250;-43
2022/10/02 10:42:13;;;;;;;;;;;;;;;29.41;30.20;100178.97;5069595;28;1247;-45
2022/10/02 10:44:38;;;;;;;;;;;;;;;29.55;29.77;100179.75;5029033;28;1268;-43
2022/10/02 10:47:42;;;;;;;;;;;;;;;29.47;30.62;100186.22;5073193;28;1282;-43
2022/10/02 10:50:26;;;;;;;;;;;;;;;29.28;30.65;100183.34;4984423;28;1547;-44
2022/10/02 10:52:51;;;;;;;;;;;;;;;29.26;31.25;100200.88;4986160;28;1280;-43
2022/10/02 10:55:44;;;;;;;;;;;;;;;29.42;30.88;100200.44;5035352;28;1951;-43
2022/10/02 10:58:11;;;;;;;;;;;;;;;29.52;30.70;100186.44;5046658;28;1255;-43
2022/10/02 11:00:46;;;;;;;;;;;;;;;29.55;30.97;100198.72;5074463;28;1571;-43
2022/10/02 11:03:17;;;;;;;;;;;;;;;29.48;31.05;100190.59;5066768;28;1346;-43
2022/10/02 11:06:04;;;;;;;;;;;;;;;29.48;30.66;100195.19;5066664;28;1246;-43
2022/10/02 11:08:44;;;;;;;;;;;;;;;29.39;30.00;100192.72;5063958;28;1107;-44
2022/10/02 11:11:20;;;;;;;;;;;;;;;29.41;30.25;100190.59;5054173;28;1144;-43
2022/10/02 11:13:50;;;;;;;;;;;;;;;29.68;30.34;100211.41;5075438;28;1894;-44
2022/10/02 11:16:22;;;;;;;;;;;;;;;29.83;30.36;100175.91;5074155;28;1465;-43
2022/10/02 11:19:06;;;;;;;;;;;;;;;30.06;30.71;100199.78;5047937;28;1282;-44
2022/10/02 11:21:38;;;;;;;;;;;;;;;29.96;30.22;100215.72;5067036;28;1234;-43
2022/10/02 11:24:06;;;;;;;;;;;;;;;30.01;30.02;100201.50;5067922;28;1223;-43
2022/10/02 11:26:54;;;;;;;;;;;;;;;30.14;30.18;100208.72;5065170;28;1219;-43
2022/10/02 11:29:26;;;;;;;;;;;;;;;29.85;29.96;100197.38;5047389;28;1251;-43
2022/10/02 11:32:08;;;;;;;;;;;;;;;29.90;30.01;100209.25;5071306;28;1298;-44
2022/10/02 11:34:42;;;;;;;;;;;;;;;29.84;30.10;100215.53;5068397;28;1973;-43
2022/10/02 11:37:23;;;;;;;;;;;;;;;29.95;30.77;100195.03;5068342;28;1195;-43
2022/10/02 11:39:48;;;;;;;;;;;;;;;29.68;30.93;100214.13;5047583;28;1223;-43
2022/10/02 11:42:17;;;;;;;;;;;;;;;29.72;30.18;100211.81;5067957;28;1290;-44
2022/10/02 11:44:48;;;;;;;;;;;;;;;29.65;30.29;100203.72;5047771;28;1402;-43
2022/10/02 11:47:28;;;;;;;;;;;;;;;29.53;30.23;100211.66;5069146;28;1215;-43
2022/10/02 11:49:59;;;;;;;;;;;;;;;29.73;29.87;100203.47;5068227;28;1047;-44
2022/10/02 11:52:43;;;;;;;;;;;;;;;29.89;30.60;100193.19;5067829;28;1195;-44
2022/10/02 11:55:14;;;;;;;;;;;;;;;29.78;30.28;100205.56;5071827;28;1902;-43
2022/10/02 11:57:49;;;;;;;;;;;;;;;29.55;30.11;100204.13;5063228;28;1036;-43
2022/10/02 12:00:32;;;;;;;;;;;;;;;29.52;31.84;100221.66;5071392;28;1243;-44
2022/10/02 12:03:08;;;;;;;;;;;;;;;29.27;31.65;100213.38;5064428;28;1214;-43
2022/10/02 12:06:14;;;;;;;;;;;;;;;29.58;30.40;100215.38;5067461;28;1309;-44
2022/10/02 12:08:45;;;;;;;;;;;;;;;29.54;30.85;100218.72;5003332;28;1193;-45
2022/10/02 12:11:32;;;;;;;;;;;;;;;29.43;31.01;100222.91;5009973;28;1176;-44
2022/10/02 12:14:13;;;;;;;;;;;;;;;29.36;30.99;100227.53;5055936;28;1898;-43
2022/10/02 12:16:41;;;;;;;;;;;;;;;29.25;30.61;100223.56;5058585;28;840;-43
2022/10/02 12:19:07;;;;;;;;;;;;;;;29.24;30.61;100230.03;5073995;28;1266;-45
2022/10/02 12:27:25;;;;;;;;;;;;;;;28.96;30.79;100229.22;5036077;28;1233;-43
2022/10/02 12:29:54;;;;;;;;;;;;;;;29.12;30.03;100225.25;5066955;28;1198;-44
2022/10/02 12:32:22;;;;;;;;;;;;;;;29.08;30.25;100242.97;5047887;28;1207;-43
2022/10/02 12:35:00;;;;;;;;;;;;;;;29.15;30.25;100238.38;5064762;28;1906;-43
2022/10/02 12:37:35;;;;;;;;;;;;;;;29.06;30.56;100251.28;5076187;28;1118;-43
2022/10/02 12:40:19;;;;;;;;;;;;;;;28.85;30.64;100247.72;5048495;28;1299;-43
2022/10/02 12:42:47;;;;;;;;;;;;;;;28.89;30.62;100252.72;5070437;28;1279;-43
2022/10/02 12:45:16;;;;;;;;;;;;;;;28.79;31.16;100248.56;5075808;28;1166;-44
2022/10/02 12:47:50;;;;;;;;;;;;;;;28.74;30.90;100245.63;5076008;28;1206;-43
2022/10/02 12:50:20;;;;;;;;;;;;;;;28.75;30.96;100254.56;5060130;28;1239;-43
2022/10/02 12:52:50;;;;;;;;;;;;;;;28.64;30.83;100267.69;5073593;28;929;-44
2022/10/02 12:55:31;;;;;;;;;;;;;;;28.69;31.66;100262.50;5048856;28;1953;-43
2022/10/02 12:58:05;;;;;;;;;;;;;;;28.95;30.48;100266.28;5073496;28;1171;-43
2022/10/02 13:00:49;;;;;;;;;;;;;;;28.99;30.68;100265.88;5075241;28;1181;-44
2022/10/02 13:03:30;;;;;;;;;;;;;;;29.05;30.87;100265.03;5060510;28;1169;-43
2022/10/02 13:05:55;;;;;;;;;;;;;;;29.04;30.11;100258.81;5074422;28;1424;-44
2022/10/02 13:08:26;;;;;;;;;;;;;;;28.95;30.55;100262.72;5075844;28;1159;-43
2022/10/02 13:10:53;;;;;;;;;;;;;;;28.88;30.50;100262.72;5058238;28;1202;-43
2022/10/02 13:13:19;;;;;;;;;;;;;;;29.10;30.36;100265.25;5075619;28;1194;-43
2022/10/02 13:15:48;;;;;;;;;;;;;;;29.12;30.39;100270.47;5068677;28;1906;-43
2022/10/02 13:18:16;;;;;;;;;;;;;;;29.03;30.97;100277.97;5058126;28;1162;-43
2022/10/02 13:20:45;;;;;;;;;;;;;;;29.04;31.02;100266.09;5077986;28;1170;-43
2022/10/02 13:23:30;;;;;;;;;;;;;;;29.19;30.77;100291.09;5079951;28;1134;-43
2022/10/02 13:26:14;;;;;;;;;;;;;;;29.05;31.25;100284.00;5079562;28;1461;-43